sensor_id;sensor_type;location;lat;lon;timestamp;pressure;altitude;pressure_sealevel;temperature;humidity
48652;BME280;34442;52.362;-1.302;2023-02-19T00:01:14;100759.34;;;10.70;100.00
48652;BME280;34442;52.362;-1.302;2023-02-19T00:03:40;100765.09;;;10.67;100.00
48652;BME280;34442;52.362;-1.302;2023-02-19T00:06:09;100769.59;;;10.60;100.00
48652;BME280;34442;52.362;-1.302;2023-02-19T00:08:36;100767.88;;;10.52;100.00
48652;BME280;34442;52.362;-1.302;2023-02-19T00:11:04;100779.00;;;10.42;100.00
48652;BME280;34442;52.362;-1.302;2023-02-19T00:13:34;100785.63;;;10.75;100.00
48652;BME280;34442;52.362;-1.302;2023-02-19T00:16:04;100782.44;;;10.99;100.00
48652;BME280;34442;52.362;-1.302;2023-02-19T00:18:30;100784.84;;;10.53;100.00
48652;BME280;34442;52.362;-1.302;2023-02-19T00:20:55;100795.16;;;10.49;100.00
48652;BME280;34442;52.362;-1.302;2023-02-19T00:23:21;100793.91;;;10.45;100.00
48652;BME280;34442;52.362;-1.302;2023-02-19T00:25:47;100785.84;;;10.45;100.00
48652;BME280;34442;52.362;-1.302;2023-02-19T00:28:12;100792.66;;;10.48;100.00
48652;BME280;34442;52.362;-1.302;2023-02-19T00:30:37;100805.50;;;10.46;100.00
48652;BME280;34442;52.362;-1.302;2023-02-19T00:33:03;100799.16;;;10.32;100.00
48652;BME280;34442;52.362;-1.302;2023-02-19T00:35:28;100800.63;;;10.34;100.00
48652;BME280;34442;52.362;-1.302;2023-02-19T00:37:54;100799.47;;;10.43;100.00
48652;BME280;34442;52.362;-1.302;2023-02-19T00:40:19;100796.75;;;10.37;100.00
48652;BME280;34442;52.362;-1.302;2023-02-19T00:42:45;100797.38;;;10.39;100.00
48652;BME280;34442;52.362;-1.302;2023-02-19T00:45:10;100799.44;;;10.37;100.00
48652;BME280;34442;52.362;-1.302;2023-02-19T00:47:36;100799.69;;;10.49;100.00
48652;BME280;34442;52.362;-1.302;2023-02-19T00:50:01;100801.25;;;10.36;100.00
48652;BME280;34442;52.362;-1.302;2023-02-19T00:52:26;100812.41;;;10.33;100.00
48652;BME280;34442;52.362;-1.302;2023-02-19T00:54:55;100807.81;;;10.27;100.00
48652;BME280;34442;52.362;-1.302;2023-02-19T00:57:20;100813.28;;;10.19;100.00
48652;BME280;34442;52.362;-1.302;2023-02-19T00:59:46;100820.97;;;10.22;100.00
48652;BME280;34442;52.362;-1.302;2023-02-19T01:02:11;100824.69;;;10.21;100.00
48652;BME280;34442;52.362;-1.302;2023-02-19T01:04:37;100833.75;;;10.20;100.00
48652;BME280;34442;52.362;-1.302;2023-02-19T01:07:02;100845.06;;;10.30;100.00
48652;BME280;34442;52.362;-1.302;2023-02-19T01:09:27;100839.69;;;10.30;100.00
48652;BME280;34442;52.362;-1.302;2023-02-19T01:11:53;100833.91;;;10.33;100.00
48652;BME280;34442;52.362;-1.302;2023-02-19T01:14:18;100844.22;;;10.30;100.00
48652;BME280;34442;52.362;-1.302;2023-02-19T01:16:44;100843.19;;;10.31;100.00
48652;BME280;34442;52.362;-1.302;2023-02-19T01:19:09;100845.34;;;10.21;100.00
48652;BME280;34442;52.362;-1.302;2023-02-19T01:21:34;100850.03;;;10.33;100.00
48652;BME280;34442;52.362;-1.302;2023-02-19T01:24:00;100860.78;;;10.33;100.00
48652;BME280;34442;52.362;-1.302;2023-02-19T01:26:28;100850.88;;;10.34;100.00
48652;BME280;34442;52.362;-1.302;2023-02-19T01:28:54;100843.88;;;10.39;100.00
48652;BME280;34442;52.362;-1.302;2023-02-19T01:31:22;100838.19;;;10.28;100.00
48652;BME280;34442;52.362;-1.302;2023-02-19T01:33:59;100830.97;;;10.28;100.00
48652;BME280;34442;52.362;-1.302;2023-02-19T01:36:27;100838.88;;;10.15;100.00
48652;BME280;34442;52.362;-1.302;2023-02-19T01:38:53;100837.47;;;10.19;100.00
48652;BME280;34442;52.362;-1.302;2023-02-19T01:41:24;100844.69;;;10.18;100.00
48652;BME280;34442;52.362;-1.302;2023-02-19T01:46:30;100850.63;;;10.29;100.00
48652;BME280;34442;52.362;-1.302;2023-02-19T01:49:02;100860.94;;;10.25;100.00
48652;BME280;34442;52.362;-1.302;2023-02-19T01:51:29;100862.38;;;10.28;100.00
48652;BME280;34442;52.362;-1.302;2023-02-19T01:53:59;100857.06;;;10.34;100.00
48652;BME280;34442;52.362;-1.302;2023-02-19T01:56:27;100864.59;;;10.24;100.00
48652;BME280;34442;52.362;-1.302;2023-02-19T01:58:54;100857.06;;;10.13;100.00
48652;BME280;34442;52.362;-1.302;2023-02-19T02:01:20;100862.56;;;10.05;100.00
48652;BME280;34442;52.362;-1.302;2023-02-19T02:03:46;100867.03;;;9.98;100.00
48652;BME280;34442;52.362;-1.302;2023-02-19T02:06:26;100864.59;;;10.03;100.00
48652;BME280;34442;52.362;-1.302;2023-02-19T02:08:55;100862.34;;;10.06;100.00
48652;BME280;34442;52.362;-1.302;2023-02-19T02:11:51;100871.06;;;10.08;100.00
48652;BME280;34442;52.362;-1.302;2023-02-19T02:14:19;100872.72;;;10.09;100.00
48652;BME280;34442;52.362;-1.302;2023-02-19T02:30:56;100911.66;;;10.35;100.00
48652;BME280;34442;52.362;-1.302;2023-02-19T02:34:03;100911.56;;;10.28;100.00
48652;BME280;34442;52.362;-1.302;2023-02-19T02:36:41;100911.28;;;10.23;100.00
48652;BME280;34442;52.362;-1.302;2023-02-19T02:39:10;100901.56;;;10.22;100.00
48652;BME280;34442;52.362;-1.302;2023-02-19T02:41:54;100906.19;;;10.28;100.00
48652;BME280;34442;52.362;-1.302;2023-02-19T02:44:39;100907.78;;;10.23;100.00
48652;BME280;34442;52.362;-1.302;2023-02-19T02:47:06;100909.19;;;10.18;100.00
48652;BME280;34442;52.362;-1.302;2023-02-19T02:49:55;100908.59;;;10.23;100.00
48652;BME280;34442;52.362;-1.302;2023-02-19T02:52:35;100919.63;;;10.28;100.00
48652;BME280;34442;52.362;-1.302;2023-02-19T02:55:21;100918.19;;;10.26;100.00
48652;BME280;34442;52.362;-1.302;2023-02-19T02:57:48;100921.00;;;10.24;100.00
48652;BME280;34442;52.362;-1.302;2023-02-19T03:00:14;100934.66;;;10.23;100.00
48652;BME280;34442;52.362;-1.302;2023-02-19T03:02:41;100950.97;;;10.21;100.00
48652;BME280;34442;52.362;-1.302;2023-02-19T03:05:13;100950.97;;;10.21;100.00
48652;BME280;34442;52.362;-1.302;2023-02-19T03:08:15;100952.16;;;10.18;100.00
48652;BME280;34442;52.362;-1.302;2023-02-19T03:10:47;100954.16;;;10.25;100.00
48652;BME280;34442;52.362;-1.302;2023-02-19T03:13:18;100957.19;;;10.22;100.00
48652;BME280;34442;52.362;-1.302;2023-02-19T03:16:10;100955.31;;;10.22;100.00
48652;BME280;34442;52.362;-1.302;2023-02-19T03:19:16;100943.41;;;10.25;100.00
48652;BME280;34442;52.362;-1.302;2023-02-19T03:24:35;100951.25;;;10.26;100.00
48652;BME280;34442;52.362;-1.302;2023-02-19T03:27:20;100949.03;;;10.30;100.00
48652;BME280;34442;52.362;-1.302;2023-02-19T03:29:49;100963.09;;;10.32;100.00
48652;BME280;34442;52.362;-1.302;2023-02-19T03:32:28;100958.81;;;10.37;100.00
48652;BME280;34442;52.362;-1.302;2023-02-19T03:35:01;100965.97;;;10.30;100.00
48652;BME280;34442;52.362;-1.302;2023-02-19T03:37:36;100976.72;;;10.30;100.00
48652;BME280;34442;52.362;-1.302;2023-02-19T03:40:05;100965.59;;;10.33;100.00
48652;BME280;34442;52.362;-1.302;2023-02-19T03:45:30;100970.06;;;10.11;100.00
48652;BME280;34442;52.362;-1.302;2023-02-19T03:48:26;100984.88;;;10.07;100.00
48652;BME280;34442;52.362;-1.302;2023-02-19T03:51:06;100986.50;;;10.02;100.00
48652;BME280;34442;52.362;-1.302;2023-02-19T03:58:48;101001.47;;;10.11;100.00
48652;BME280;34442;52.362;-1.302;2023-02-19T04:01:30;101014.78;;;10.19;100.00
48652;BME280;34442;52.362;-1.302;2023-02-19T04:06:52;101023.22;;;10.16;100.00
48652;BME280;34442;52.362;-1.302;2023-02-19T04:09:19;101026.69;;;10.25;100.00
48652;BME280;34442;52.362;-1.302;2023-02-19T04:11:47;101019.59;;;10.24;100.00
48652;BME280;34442;52.362;-1.302;2023-02-19T04:14:24;101027.53;;;10.25;100.00
48652;BME280;34442;52.362;-1.302;2023-02-19T04:17:00;101034.53;;;10.11;100.00
48652;BME280;34442;52.362;-1.302;2023-02-19T04:19:30;101035.75;;;10.09;100.00
48652;BME280;34442;52.362;-1.302;2023-02-19T04:21:58;101041.13;;;10.09;100.00
48652;BME280;34442;52.362;-1.302;2023-02-19T04:24:32;101051.31;;;10.13;100.00
48652;BME280;34442;52.362;-1.302;2023-02-19T04:26:59;101054.00;;;10.13;100.00
48652;BME280;34442;52.362;-1.302;2023-02-19T04:29:25;101053.06;;;10.21;100.00
48652;BME280;34442;52.362;-1.302;2023-02-19T04:31:50;101043.63;;;10.10;100.00
48652;BME280;34442;52.362;-1.302;2023-02-19T04:34:15;101041.78;;;10.11;100.00
48652;BME280;34442;52.362;-1.302;2023-02-19T04:36:41;101042.81;;;10.25;100.00
48652;BME280;34442;52.362;-1.302;2023-02-19T04:39:06;101051.84;;;10.24;100.00
48652;BME280;34442;52.362;-1.302;2023-02-19T04:41:33;101056.13;;;10.18;100.00
48652;BME280;34442;52.362;-1.302;2023-02-19T04:43:58;101062.69;;;10.15;100.00
48652;BME280;34442;52.362;-1.302;2023-02-19T04:46:24;101058.91;;;10.10;100.00
48652;BME280;34442;52.362;-1.302;2023-02-19T04:48:49;101063.94;;;10.13;100.00
48652;BME280;34442;52.362;-1.302;2023-02-19T04:51:14;101068.16;;;10.07;100.00
48652;BME280;34442;52.362;-1.302;2023-02-19T04:53:40;101083.09;;;10.10;100.00
48652;BME280;34442;52.362;-1.302;2023-02-19T04:56:10;101093.47;;;9.98;100.00
48652;BME280;34442;52.362;-1.302;2023-02-19T04:58:36;101104.00;;;10.00;100.00
48652;BME280;34442;52.362;-1.302;2023-02-19T05:01:02;101111.97;;;9.78;100.00
48652;BME280;34442;52.362;-1.302;2023-02-19T05:03:28;101117.41;;;9.70;100.00
48652;BME280;34442;52.362;-1.302;2023-02-19T05:05:54;101121.31;;;9.67;100.00
48652;BME280;34442;52.362;-1.302;2023-02-19T05:08:19;101125.81;;;9.52;100.00
48652;BME280;34442;52.362;-1.302;2023-02-19T05:10:45;101132.28;;;9.43;100.00
48652;BME280;34442;52.362;-1.302;2023-02-19T05:13:10;101131.03;;;9.31;100.00
48652;BME280;34442;52.362;-1.302;2023-02-19T05:15:35;101143.78;;;9.29;100.00
48652;BME280;34442;52.362;-1.302;2023-02-19T05:18:01;101138.47;;;9.20;100.00
48652;BME280;34442;52.362;-1.302;2023-02-19T05:20:26;101137.69;;;9.12;100.00
48652;BME280;34442;52.362;-1.302;2023-02-19T05:22:51;101142.81;;;8.99;100.00
48652;BME280;34442;52.362;-1.302;2023-02-19T05:25:17;101139.41;;;9.05;100.00
48652;BME280;34442;52.362;-1.302;2023-02-19T05:27:42;101146.03;;;8.94;100.00
48652;BME280;34442;52.362;-1.302;2023-02-19T05:30:08;101146.19;;;8.92;100.00
48652;BME280;34442;52.362;-1.302;2023-02-19T05:32:35;101156.47;;;8.89;100.00
48652;BME280;34442;52.362;-1.302;2023-02-19T05:35:00;101157.97;;;8.83;100.00
48652;BME280;34442;52.362;-1.302;2023-02-19T05:37:26;101160.84;;;8.82;100.00
48652;BME280;34442;52.362;-1.302;2023-02-19T05:39:51;101162.19;;;8.86;100.00
48652;BME280;34442;52.362;-1.302;2023-02-19T05:42:17;101169.78;;;8.74;100.00
48652;BME280;34442;52.362;-1.302;2023-02-19T05:44:42;101168.59;;;8.77;100.00
48652;BME280;34442;52.362;-1.302;2023-02-19T05:47:08;101188.19;;;8.77;100.00
48652;BME280;34442;52.362;-1.302;2023-02-19T05:49:33;101201.44;;;8.70;100.00
48652;BME280;34442;52.362;-1.302;2023-02-19T05:51:58;101196.94;;;8.63;100.00
48652;BME280;34442;52.362;-1.302;2023-02-19T05:54:27;101194.97;;;8.57;100.00
48652;BME280;34442;52.362;-1.302;2023-02-19T05:56:52;101194.25;;;8.71;100.00
48652;BME280;34442;52.362;-1.302;2023-02-19T05:59:20;101196.47;;;8.59;100.00
48652;BME280;34442;52.362;-1.302;2023-02-19T06:01:47;101186.28;;;8.47;100.00
48652;BME280;34442;52.362;-1.302;2023-02-19T06:04:13;101183.97;;;8.43;100.00
48652;BME280;34442;52.362;-1.302;2023-02-19T06:06:40;101182.81;;;8.38;100.00
48652;BME280;34442;52.362;-1.302;2023-02-19T06:09:07;101180.41;;;8.51;100.00
48652;BME280;34442;52.362;-1.302;2023-02-19T06:11:33;101180.75;;;8.56;100.00
48652;BME280;34442;52.362;-1.302;2023-02-19T06:13:58;101187.63;;;8.51;100.00
48652;BME280;34442;52.362;-1.302;2023-02-19T06:16:24;101184.44;;;8.47;100.00
48652;BME280;34442;52.362;-1.302;2023-02-19T06:18:50;101186.81;;;8.42;100.00
48652;BME280;34442;52.362;-1.302;2023-02-19T06:21:16;101179.88;;;8.56;100.00
48652;BME280;34442;52.362;-1.302;2023-02-19T06:23:42;101199.16;;;8.51;100.00
48652;BME280;34442;52.362;-1.302;2023-02-19T06:28:43;101212.44;;;8.44;100.00
48652;BME280;34442;52.362;-1.302;2023-02-19T06:31:10;101214.72;;;8.56;100.00
48652;BME280;34442;52.362;-1.302;2023-02-19T06:33:36;101215.59;;;8.56;100.00
48652;BME280;34442;52.362;-1.302;2023-02-19T06:36:06;101221.41;;;8.60;100.00
48652;BME280;34442;52.362;-1.302;2023-02-19T06:38:32;101232.81;;;8.62;100.00
48652;BME280;34442;52.362;-1.302;2023-02-19T06:41:03;101223.44;;;8.58;100.00
48652;BME280;34442;52.362;-1.302;2023-02-19T06:43:30;101239.19;;;8.61;100.00
48652;BME280;34442;52.362;-1.302;2023-02-19T06:46:06;101218.38;;;8.63;100.00
48652;BME280;34442;52.362;-1.302;2023-02-19T06:48:32;101220.44;;;8.53;100.00
48652;BME280;34442;52.362;-1.302;2023-02-19T06:50:58;101221.44;;;8.52;100.00
48652;BME280;34442;52.362;-1.302;2023-02-19T06:53:23;101226.78;;;8.52;100.00
48652;BME280;34442;52.362;-1.302;2023-02-19T06:56:00;101218.09;;;8.50;100.00
48652;BME280;34442;52.362;-1.302;2023-02-19T06:58:26;101228.00;;;8.49;100.00
48652;BME280;34442;52.362;-1.302;2023-02-19T07:00:55;101240.72;;;8.47;100.00
48652;BME280;34442;52.362;-1.302;2023-02-19T07:03:23;101239.56;;;8.41;100.00
48652;BME280;34442;52.362;-1.302;2023-02-19T07:05:50;101222.97;;;8.30;100.00
48652;BME280;34442;52.362;-1.302;2023-02-19T07:08:16;101234.72;;;8.29;100.00
48652;BME280;34442;52.362;-1.302;2023-02-19T07:10:43;101229.84;;;8.32;100.00
48652;BME280;34442;52.362;-1.302;2023-02-19T07:13:08;101253.97;;;8.32;100.00
48652;BME280;34442;52.362;-1.302;2023-02-19T07:15:34;101249.94;;;8.36;100.00
48652;BME280;34442;52.362;-1.302;2023-02-19T07:17:59;101259.66;;;8.37;100.00
48652;BME280;34442;52.362;-1.302;2023-02-19T07:20:25;101253.28;;;8.22;100.00
48652;BME280;34442;52.362;-1.302;2023-02-19T07:22:50;101257.28;;;8.34;100.00
48652;BME280;34442;52.362;-1.302;2023-02-19T07:25:19;101265.53;;;8.41;100.00
48652;BME280;34442;52.362;-1.302;2023-02-19T07:27:44;101268.84;;;8.27;100.00
48652;BME280;34442;52.362;-1.302;2023-02-19T07:30:10;101275.06;;;8.35;100.00
48652;BME280;34442;52.362;-1.302;2023-02-19T07:32:39;101291.97;;;8.36;100.00
48652;BME280;34442;52.362;-1.302;2023-02-19T07:35:05;101305.22;;;8.37;100.00
48652;BME280;34442;52.362;-1.302;2023-02-19T07:37:31;101311.56;;;8.36;100.00
48652;BME280;34442;52.362;-1.302;2023-02-19T07:39:56;101334.97;;;8.34;100.00
48652;BME280;34442;52.362;-1.302;2023-02-19T07:42:22;101338.84;;;8.32;100.00
48652;BME280;34442;52.362;-1.302;2023-02-19T07:44:47;101354.13;;;8.39;100.00
48652;BME280;34442;52.362;-1.302;2023-02-19T07:47:12;101368.31;;;8.32;100.00
48652;BME280;34442;52.362;-1.302;2023-02-19T07:49:41;101366.16;;;8.35;100.00
48652;BME280;34442;52.362;-1.302;2023-02-19T07:52:06;101342.19;;;8.26;100.00
48652;BME280;34442;52.362;-1.302;2023-02-19T07:54:31;101304.88;;;8.32;100.00
48652;BME280;34442;52.362;-1.302;2023-02-19T07:56:57;101300.16;;;8.26;100.00
48652;BME280;34442;52.362;-1.302;2023-02-19T07:59:23;101316.75;;;8.13;100.00
48652;BME280;34442;52.362;-1.302;2023-02-19T08:01:49;101321.09;;;8.14;100.00
48652;BME280;34442;52.362;-1.302;2023-02-19T08:04:33;101321.09;;;8.23;100.00
48652;BME280;34442;52.362;-1.302;2023-02-19T08:06:58;101318.25;;;8.16;100.00
48652;BME280;34442;52.362;-1.302;2023-02-19T08:09:24;101313.75;;;8.16;100.00
48652;BME280;34442;52.362;-1.302;2023-02-19T08:11:49;101321.94;;;8.23;100.00
48652;BME280;34442;52.362;-1.302;2023-02-19T08:14:33;101314.25;;;8.28;100.00
48652;BME280;34442;52.362;-1.302;2023-02-19T08:16:59;101304.88;;;8.24;100.00
48652;BME280;34442;52.362;-1.302;2023-02-19T08:19:24;101298.69;;;8.40;100.00
48652;BME280;34442;52.362;-1.302;2023-02-19T08:21:49;101309.22;;;8.33;100.00
48652;BME280;34442;52.362;-1.302;2023-02-19T08:24:15;101308.56;;;8.31;100.00
48652;BME280;34442;52.362;-1.302;2023-02-19T08:26:40;101327.13;;;8.33;100.00
48652;BME280;34442;52.362;-1.302;2023-02-19T08:29:06;101314.41;;;8.43;100.00
48652;BME280;34442;52.362;-1.302;2023-02-19T08:31:32;101316.25;;;8.42;100.00
48652;BME280;34442;52.362;-1.302;2023-02-19T08:34:01;101317.44;;;8.40;100.00
48652;BME280;34442;52.362;-1.302;2023-02-19T08:36:27;101328.81;;;8.50;100.00
48652;BME280;34442;52.362;-1.302;2023-02-19T08:38:52;101341.84;;;8.78;100.00
48652;BME280;34442;52.362;-1.302;2023-02-19T08:41:18;101349.00;;;8.93;100.00
48652;BME280;34442;52.362;-1.302;2023-02-19T08:43:44;101346.09;;;9.11;100.00
48652;BME280;34442;52.362;-1.302;2023-02-19T08:46:10;101345.56;;;9.16;100.00
48652;BME280;34442;52.362;-1.302;2023-02-19T08:48:36;101350.47;;;9.04;100.00
48652;BME280;34442;52.362;-1.302;2023-02-19T08:51:05;101346.31;;;8.93;100.00
48652;BME280;34442;52.362;-1.302;2023-02-19T08:53:33;101340.28;;;8.91;100.00
48652;BME280;34442;52.362;-1.302;2023-02-19T08:56:07;101345.13;;;8.96;100.00
48652;BME280;34442;52.362;-1.302;2023-02-19T08:58:33;101353.00;;;9.06;100.00
48652;BME280;34442;52.362;-1.302;2023-02-19T09:00:59;101377.81;;;9.00;100.00
48652;BME280;34442;52.362;-1.302;2023-02-19T09:03:25;101402.75;;;9.08;100.00
48652;BME280;34442;52.362;-1.302;2023-02-19T09:05:51;101416.56;;;8.97;100.00
48652;BME280;34442;52.362;-1.302;2023-02-19T09:08:16;101409.97;;;9.08;100.00
48652;BME280;34442;52.362;-1.302;2023-02-19T09:10:42;101397.75;;;9.13;100.00
48652;BME280;34442;52.362;-1.302;2023-02-19T09:13:07;101392.41;;;9.05;100.00
48652;BME280;34442;52.362;-1.302;2023-02-19T09:15:33;101388.66;;;9.14;100.00
48652;BME280;34442;52.362;-1.302;2023-02-19T09:17:59;101385.97;;;9.23;100.00
48652;BME280;34442;52.362;-1.302;2023-02-19T09:20:25;101385.91;;;9.39;100.00
48652;BME280;34442;52.362;-1.302;2023-02-19T09:22:56;101370.44;;;9.41;100.00
48652;BME280;34442;52.362;-1.302;2023-02-19T09:25:21;101380.13;;;9.50;100.00
48652;BME280;34442;52.362;-1.302;2023-02-19T09:27:46;101389.56;;;9.38;100.00
48652;BME280;34442;52.362;-1.302;2023-02-19T09:30:12;101394.56;;;9.49;100.00
48652;BME280;34442;52.362;-1.302;2023-02-19T09:32:37;101389.53;;;9.46;100.00
48652;BME280;34442;52.362;-1.302;2023-02-19T09:35:03;101401.03;;;9.71;100.00
48652;BME280;34442;52.362;-1.302;2023-02-19T09:37:29;101402.69;;;9.72;100.00
48652;BME280;34442;52.362;-1.302;2023-02-19T09:39:54;101396.78;;;9.77;100.00
48652;BME280;34442;52.362;-1.302;2023-02-19T09:42:25;101402.66;;;9.80;100.00
48652;BME280;34442;52.362;-1.302;2023-02-19T09:44:54;101394.34;;;9.90;100.00
48652;BME280;34442;52.362;-1.302;2023-02-19T09:47:27;101401.75;;;10.42;100.00
48652;BME280;34442;52.362;-1.302;2023-02-19T09:49:58;101410.88;;;10.93;100.00
48652;BME280;34442;52.362;-1.302;2023-02-19T09:52:49;101422.69;;;11.22;100.00
48652;BME280;34442;52.362;-1.302;2023-02-19T09:55:21;101418.06;;;10.40;100.00
48652;BME280;34442;52.362;-1.302;2023-02-19T09:57:52;101431.22;;;10.04;100.00
48652;BME280;34442;52.362;-1.302;2023-02-19T10:00:24;101428.53;;;10.04;100.00
48652;BME280;34442;52.362;-1.302;2023-02-19T10:02:59;101429.38;;;10.05;100.00
48652;BME280;34442;52.362;-1.302;2023-02-19T10:05:27;101428.16;;;10.07;100.00
48652;BME280;34442;52.362;-1.302;2023-02-19T10:07:54;101439.69;;;10.16;100.00
48652;BME280;34442;52.362;-1.302;2023-02-19T10:10:31;101446.38;;;10.28;100.00
48652;BME280;34442;52.362;-1.302;2023-02-19T10:13:19;101447.22;;;10.52;100.00
48652;BME280;34442;52.362;-1.302;2023-02-19T10:15:51;101443.91;;;10.64;100.00
48652;BME280;34442;52.362;-1.302;2023-02-19T10:18:22;101439.56;;;10.40;100.00
48652;BME280;34442;52.362;-1.302;2023-02-19T10:20:49;101448.28;;;10.42;100.00
48652;BME280;34442;52.362;-1.302;2023-02-19T10:23:16;101446.69;;;10.33;100.00
48652;BME280;34442;52.362;-1.302;2023-02-19T10:25:45;101444.53;;;10.29;100.00
48652;BME280;34442;52.362;-1.302;2023-02-19T10:28:14;101450.84;;;10.36;100.00
48652;BME280;34442;52.362;-1.302;2023-02-19T10:30:41;101440.22;;;10.42;100.00
48652;BME280;34442;52.362;-1.302;2023-02-19T10:33:13;101448.69;;;10.31;100.00
48652;BME280;34442;52.362;-1.302;2023-02-19T10:36:05;101447.53;;;10.34;100.00
48652;BME280;34442;52.362;-1.302;2023-02-19T10:38:34;101450.75;;;10.29;100.00
48652;BME280;34442;52.362;-1.302;2023-02-19T10:41:06;101462.13;;;10.31;100.00
48652;BME280;34442;52.362;-1.302;2023-02-19T10:43:37;101450.75;;;10.29;100.00
48652;BME280;34442;52.362;-1.302;2023-02-19T10:46:13;101450.31;;;10.40;100.00
48652;BME280;34442;52.362;-1.302;2023-02-19T10:48:49;101441.97;;;10.58;100.00
48652;BME280;34442;52.362;-1.302;2023-02-19T10:51:17;101452.47;;;10.68;100.00
48652;BME280;34442;52.362;-1.302;2023-02-19T10:53:48;101437.34;;;10.67;100.00
48652;BME280;34442;52.362;-1.302;2023-02-19T10:56:25;101435.97;;;10.71;100.00
48652;BME280;34442;52.362;-1.302;2023-02-19T10:58:51;101434.44;;;10.91;100.00
48652;BME280;34442;52.362;-1.302;2023-02-19T11:01:22;101442.59;;;10.98;100.00
48652;BME280;34442;52.362;-1.302;2023-02-19T11:03:50;101437.69;;;11.02;100.00
48652;BME280;34442;52.362;-1.302;2023-02-19T11:06:18;101430.09;;;11.05;100.00
48652;BME280;34442;52.362;-1.302;2023-02-19T11:08:56;101428.78;;;11.01;100.00
48652;BME280;34442;52.362;-1.302;2023-02-19T11:11:35;101431.84;;;10.98;100.00
48652;BME280;34442;52.362;-1.302;2023-02-19T11:14:13;101425.75;;;11.04;100.00
48652;BME280;34442;52.362;-1.302;2023-02-19T11:16:50;101418.78;;;11.10;100.00
48652;BME280;34442;52.362;-1.302;2023-02-19T11:19:34;101410.06;;;11.08;100.00
48652;BME280;34442;52.362;-1.302;2023-02-19T11:22:01;101415.25;;;11.09;100.00
48652;BME280;34442;52.362;-1.302;2023-02-19T11:24:47;101427.22;;;11.22;100.00
48652;BME280;34442;52.362;-1.302;2023-02-19T11:27:20;101431.69;;;11.44;100.00
48652;BME280;34442;52.362;-1.302;2023-02-19T11:29:45;101427.16;;;11.45;100.00
48652;BME280;34442;52.362;-1.302;2023-02-19T11:32:28;101423.31;;;11.39;100.00
48652;BME280;34442;52.362;-1.302;2023-02-19T11:37:58;101427.72;;;11.40;100.00
48652;BME280;34442;52.362;-1.302;2023-02-19T11:40:42;101425.06;;;11.02;100.00
48652;BME280;34442;52.362;-1.302;2023-02-19T11:46:02;101428.47;;;10.81;100.00
48652;BME280;34442;52.362;-1.302;2023-02-19T11:48:39;101417.53;;;10.83;100.00
48652;BME280;34442;52.362;-1.302;2023-02-19T11:51:18;101410.19;;;10.62;100.00
48652;BME280;34442;52.362;-1.302;2023-02-19T11:54:06;101406.81;;;10.60;100.00
48652;BME280;34442;52.362;-1.302;2023-02-19T11:56:38;101407.03;;;10.73;100.00
48652;BME280;34442;52.362;-1.302;2023-02-19T11:59:16;101404.34;;;10.73;100.00
48652;BME280;34442;52.362;-1.302;2023-02-19T12:04:55;101401.00;;;10.86;100.00
48652;BME280;34442;52.362;-1.302;2023-02-19T12:09:59;101394.38;;;11.26;100.00
48652;BME280;34442;52.362;-1.302;2023-02-19T12:12:55;101386.50;;;11.25;100.00
48652;BME280;34442;52.362;-1.302;2023-02-19T12:15:52;101373.28;;;11.15;100.00
48652;BME280;34442;52.362;-1.302;2023-02-19T12:29:54;101378.31;;;11.33;100.00
48652;BME280;34442;52.362;-1.302;2023-02-19T12:43:17;101369.97;;;11.28;100.00
48652;BME280;34442;52.362;-1.302;2023-02-19T12:48:48;101375.69;;;11.54;100.00
48652;BME280;34442;52.362;-1.302;2023-02-19T12:51:34;101366.50;;;11.49;100.00
48652;BME280;34442;52.362;-1.302;2023-02-19T12:54:11;101348.66;;;11.48;100.00
48652;BME280;34442;52.362;-1.302;2023-02-19T12:56:45;101339.50;;;11.42;100.00
48652;BME280;34442;52.362;-1.302;2023-02-19T13:01:55;101350.53;;;11.47;100.00
48652;BME280;34442;52.362;-1.302;2023-02-19T13:04:33;101341.63;;;11.47;100.00
48652;BME280;34442;52.362;-1.302;2023-02-19T13:07:19;101322.50;;;11.41;100.00
48652;BME280;34442;52.362;-1.302;2023-02-19T13:09:55;101316.19;;;11.49;100.00
48652;BME280;34442;52.362;-1.302;2023-02-19T13:12:26;101319.34;;;11.53;100.00
48652;BME280;34442;52.362;-1.302;2023-02-19T13:15:16;101312.78;;;11.40;100.00
48652;BME280;34442;52.362;-1.302;2023-02-19T13:17:47;101317.97;;;11.42;100.00
48652;BME280;34442;52.362;-1.302;2023-02-19T13:20:30;101319.94;;;11.33;100.00
48652;BME280;34442;52.362;-1.302;2023-02-19T13:23:12;101313.72;;;11.33;100.00
48652;BME280;34442;52.362;-1.302;2023-02-19T13:31:45;101319.25;;;11.46;100.00
48652;BME280;34442;52.362;-1.302;2023-02-19T13:36:52;101311.81;;;11.48;100.00
48652;BME280;34442;52.362;-1.302;2023-02-19T13:39:19;101311.47;;;11.36;100.00
48652;BME280;34442;52.362;-1.302;2023-02-19T13:41:51;101310.25;;;11.39;100.00
48652;BME280;34442;52.362;-1.302;2023-02-19T13:44:19;101309.25;;;11.40;100.00
48652;BME280;34442;52.362;-1.302;2023-02-19T13:46:46;101304.84;;;11.54;100.00
48652;BME280;34442;52.362;-1.302;2023-02-19T13:51:49;101309.91;;;11.63;100.00
48652;BME280;34442;52.362;-1.302;2023-02-19T13:54:32;101314.72;;;11.68;100.00
48652;BME280;34442;52.362;-1.302;2023-02-19T13:57:26;101325.50;;;11.68;100.00
48652;BME280;34442;52.362;-1.302;2023-02-19T13:59:54;101327.31;;;11.61;100.00
48652;BME280;34442;52.362;-1.302;2023-02-19T14:04:56;101311.97;;;11.61;100.00
48652;BME280;34442;52.362;-1.302;2023-02-19T14:09:53;101308.44;;;11.61;100.00
48652;BME280;34442;52.362;-1.302;2023-02-19T14:12:21;101299.53;;;11.60;100.00
48652;BME280;34442;52.362;-1.302;2023-02-19T14:28:00;101282.69;;;11.73;100.00
48652;BME280;34442;52.362;-1.302;2023-02-19T14:30:28;101276.38;;;11.66;100.00